Time;durP1;ratioP1;P1;durP2;ratioP2;P2;SDS_P1;SDS_P2;PMS_P1;PMS_P2;Temp;Humidity;BMP_temperature;BMP_pressure;BME280_temperature;BME280_humidity;BME280_pressure;Samples;Min_cycle;Max_cycle;Signal;HPM_P1;HPM_P2
2023/01/05 00:01:04;;;;;;;4.12;2.90;;;;;;;1.59;100.00;99554.92;1671197;85;21530;-62
2023/01/05 00:03:33;;;;;;;5.65;3.50;;;;;;;1.59;100.00;99556.66;1638048;86;20952;-61
2023/01/05 00:06:13;;;;;;;5.05;3.60;;;;;;;1.62;100.00;99552.33;1671435;84;21471;-62
2023/01/05 00:08:40;;;;;;;3.33;3.02;;;;;;;1.71;100.00;99548.77;1652787;85;21490;-63
2023/01/05 00:22:37;;;;;;;3.08;2.58;;;;;;;1.81;100.00;99512.84;1638272;87;21562;-60
2023/01/05 00:25:16;;;;;;;4.62;2.52;;;;;;;1.82;100.00;99508.06;1638226;85;21537;-61
2023/01/05 00:27:45;;;;;;;3.37;2.60;;;;;;;1.78;100.00;99496.45;1638452;87;21866;-61
2023/01/05 00:30:14;;;;;;;3.58;3.00;;;;;;;1.79;100.00;99495.56;1638270;87;21478;-62
2023/01/05 00:32:41;;;;;;;3.98;3.40;;;;;;;1.74;100.00;99495.17;1638389;86;21460;-61
2023/01/05 00:35:10;;;;;;;4.63;3.00;;;;;;;1.74;100.00;99491.28;1638605;87;21570;-61
2023/01/05 00:37:37;;;;;;;4.53;2.98;;;;;;;1.77;100.00;99477.42;1638381;86;21014;-61
2023/01/05 00:40:08;;;;;;;5.60;3.60;;;;;;;1.78;100.00;99475.27;1638638;87;21886;-61
2023/01/05 00:42:35;;;;;;;4.28;3.22;;;;;;;1.86;100.00;99460.93;1637605;87;21597;-61
2023/01/05 00:45:04;;;;;;;3.30;3.00;;;;;;;1.86;100.00;99442.78;1602395;89;21493;-61
2023/01/05 00:47:31;;;;;;;5.03;2.85;;;;;;;1.84;100.00;99444.09;1632397;87;21549;-61
2023/01/05 00:49:57;;;;;;;3.98;2.80;;;;;;;1.84;100.00;99426.38;1602269;89;21727;-61
2023/01/05 00:52:24;;;;;;;4.05;3.20;;;;;;;1.89;100.00;99415.09;1632104;87;21884;-62
2023/01/05 00:54:51;;;;;;;3.92;3.08;;;;;;;1.84;100.00;99406.49;1602209;89;21446;-61
2023/01/05 00:57:17;;;;;;;4.17;3.40;;;;;;;1.81;100.00;99401.36;1632487;87;21538;-62
2023/01/05 00:59:44;;;;;;;4.03;3.10;;;;;;;1.81;100.00;99399.19;1614454;87;21423;-61
2023/01/05 01:02:11;;;;;;;4.70;3.15;;;;;;;1.86;100.00;99406.03;1620795;88;21422;-62
2023/01/05 01:04:38;;;;;;;3.73;2.97;;;;;;;1.82;100.00;99409.99;1621028;87;21830;-61
2023/01/05 01:07:05;;;;;;;3.45;3.02;;;;;;;1.81;100.00;99387.52;1620938;88;21693;-62
2023/01/05 01:09:32;;;;;;;4.33;2.90;;;;;;;1.81;100.00;99365.06;1621088;87;21558;-61
2023/01/05 01:11:59;;;;;;;3.55;2.80;;;;;;;1.86;100.00;99361.96;1620856;88;21100;-62
2023/01/05 01:14:26;;;;;;;3.63;3.20;;;;;;;1.90;100.00;99358.48;1621030;87;21577;-62
2023/01/05 01:16:53;;;;;;;4.93;3.37;;;;;;;1.87;100.00;99355.91;1621075;87;21742;-62
2023/01/05 01:19:23;;;;;;;4.35;2.98;;;;;;;1.86;100.00;99343.81;1649022;85;21568;-61
2023/01/05 01:21:49;;;;;;;4.58;3.45;;;;;;;1.90;100.00;99339.03;1648812;85;21600;-61
2023/01/05 01:24:24;;;;;;;3.67;2.87;;;;;;;1.95;100.00;99338.52;1684851;84;21545;-62
2023/01/05 01:26:52;;;;;;;6.53;3.10;;;;;;;1.93;100.00;99342.02;1684971;84;21414;-61
2023/01/05 01:29:20;;;;;;;5.78;3.20;;;;;;;1.92;100.00;99329.91;1684849;84;27384;-62
2023/01/05 01:31:50;;;;;;;4.00;3.27;;;;;;;1.90;100.00;99310.52;1684739;84;21043;-62
2023/01/05 01:34:17;;;;;;;5.37;3.00;;;;;;;1.97;100.00;99306.09;1684339;84;21508;-62
2023/01/05 01:36:44;;;;;;;4.35;3.70;;;;;;;1.99;100.00;99298.30;1684946;84;21493;-61
2023/01/05 01:39:12;;;;;;;3.42;3.12;;;;;;;2.03;100.00;99287.84;1685231;83;21457;-62
2023/01/05 01:41:41;;;;;;;6.75;3.77;;;;;;;2.03;100.00;99277.92;1651119;85;21820;-61
2023/01/05 01:44:52;;;;;;;4.92;3.37;;;;;;;1.97;100.00;99274.12;1671631;84;21516;-61
2023/01/05 01:47:38;;;;;;;3.95;3.33;;;;;;;2.08;100.00;99265.30;1665078;85;21505;-64
2023/01/05 01:50:14;;;;;;;3.95;3.20;;;;;;;2.14;100.00;99253.98;1672601;84;21528;-62
2023/01/05 01:52:42;;;;;;;4.00;3.05;;;;;;;2.19;100.00;99244.86;1684883;84;21457;-62
2023/01/05 01:55:09;;;;;;;4.95;3.45;;;;;;;2.23;100.00;99230.50;1684876;84;21926;-62
2023/01/05 01:57:36;;;;;;;4.92;3.27;;;;;;;2.27;100.00;99226.13;1681073;83;21664;-61
2023/01/05 02:00:05;;;;;;;5.75;3.65;;;;;;;2.31;100.00;99211.77;1684768;84;21565;-61
2023/01/05 02:02:36;;;;;;;5.62;4.08;;;;;;;2.25;100.00;99203.25;1679714;84;21636;-62
2023/01/05 02:05:06;;;;;;;3.95;3.33;;;;;;;2.26;100.00;99188.95;1684875;84;21474;-61
2023/01/05 02:07:34;;;;;;;3.80;3.40;;;;;;;2.28;100.00;99185.90;1684286;83;21861;-61
2023/01/05 02:10:00;;;;;;;5.03;3.83;;;;;;;2.32;100.00;99176.33;1684685;84;21434;-62
2023/01/05 02:12:54;;;;;;;6.70;3.90;;;;;;;2.33;100.00;99172.38;1684646;83;21514;-62
2023/01/05 02:15:42;;;;;;;4.20;3.77;;;;;;;2.37;100.00;99167.16;1684599;84;21367;-61
2023/01/05 02:18:45;;;;;;;3.72;3.33;;;;;;;2.30;100.00;99150.86;1684517;84;21506;-60
2023/01/05 02:21:25;;;;;;;4.05;3.55;;;;;;;2.38;100.00;99140.34;1693229;83;21486;-62
2023/01/05 02:24:21;;;;;;;4.75;3.95;;;;;;;2.40;100.00;99139.87;1683826;83;21459;-61
2023/01/05 02:27:03;;;;;;;4.28;3.70;;;;;;;2.37;100.00;99135.56;1684338;83;21553;-61
2023/01/05 02:29:56;;;;;;;4.28;3.80;;;;;;;2.39;100.00;99127.77;1684209;84;21497;-62
2023/01/05 02:32:47;;;;;;;3.85;3.47;;;;;;;2.41;100.00;99124.28;1684212;84;22323;-63
2023/01/05 02:35:52;;;;;;;4.58;3.33;;;;;;;2.44;100.00;99119.02;1684312;83;21417;-63
2023/01/05 02:38:45;;;;;;;4.90;3.72;;;;;;;2.47;100.00;99116.83;1684173;84;21513;-62
2023/01/05 02:41:24;;;;;;;6.62;3.92;;;;;;;2.41;100.00;99115.20;1683900;83;21475;-62
2023/01/05 02:43:52;;;;;;;4.00;3.40;;;;;;;2.45;100.00;99106.47;1666295;84;20998;-61
2023/01/05 02:46:20;;;;;;;5.20;3.87;;;;;;;2.38;100.00;99120.88;1612087;86;21509;-62
2023/01/05 02:48:47;;;;;;;5.83;3.93;;;;;;;2.42;100.00;99105.66;1654971;85;21828;-60
2023/01/05 02:51:17;;;;;;;;;;;;;;;2.48;100.00;99106.84;1657359;86;21463;-63
2023/01/05 02:53:48;;;;;;;5.97;4.45;;;;;;;2.36;100.00;99101.89;1642989;86;20176;-61
2023/01/05 02:56:26;;;;;;;5.03;4.28;;;;;;;2.40;100.00;99091.41;1633872;87;21057;-61
2023/01/05 02:58:57;;;;;;;5.47;4.15;;;;;;;2.38;100.00;99086.70;1639387;87;21601;-64
2023/01/05 03:01:45;;;;;;;7.47;4.03;;;;;;;2.46;100.00;99077.47;1638177;87;21946;-62
2023/01/05 03:04:16;;;;;;;4.55;4.15;;;;;;;2.45;100.00;99072.73;1673059;85;25744;-62
2023/01/05 03:06:49;;;;;;;8.40;5.08;;;;;;;2.53;100.00;99058.31;1650748;86;21422;-61
2023/01/05 03:09:24;;;;;;;6.53;5.00;;;;;;;2.46;100.00;99060.16;1650387;85;21429;-63
2023/01/05 03:15:31;;;;;;;6.85;4.67;;;;;;;2.55;100.00;99037.52;1649185;86;21925;-61
2023/01/05 03:18:06;;;;;;;5.60;4.20;;;;;;;2.58;100.00;99034.84;1647242;85;21048;-63
2023/01/05 03:20:36;;;;;;;4.87;4.03;;;;;;;2.57;100.00;99028.81;1691771;83;21036;-62
2023/01/05 03:37:48;;;;;;;5.90;4.25;;;;;;;2.57;100.00;98987.73;1647162;86;21546;-61
2023/01/05 03:40:25;;;;;;;4.80;4.25;;;;;;;2.52;100.00;98977.44;1647128;86;21514;-61
2023/01/05 03:42:54;;;;;;;6.20;4.53;;;;;;;2.46;100.00;98976.27;1644331;86;21821;-62
2023/01/05 03:45:22;;;;;;;5.85;4.83;;;;;;;2.50;100.00;98967.08;1648651;86;21472;-61
2023/01/05 03:47:49;;;;;;;6.50;4.45;;;;;;;2.47;100.00;98965.86;1648867;86;20987;-61
2023/01/05 03:50:19;;;;;;;5.30;4.78;;;;;;;2.43;100.00;98964.64;1655606;86;21470;-62
2023/01/05 03:52:46;;;;;;;5.42;4.83;;;;;;;2.39;100.00;98963.00;1657725;86;21450;-62
2023/01/05 03:55:13;;;;;;;5.83;5.20;;;;;;;2.40;100.00;98951.75;1691439;83;21800;-61
2023/01/05 03:57:42;;;;;;;4.70;4.30;;;;;;;2.41;100.00;98947.84;1691317;83;21561;-60
2023/01/05 04:00:11;;;;;;;5.80;5.13;;;;;;;2.33;100.00;98935.44;1691687;83;21513;-62
2023/01/05 04:02:48;;;;;;;7.35;4.70;;;;;;;2.35;100.00;98932.38;1691491;83;21450;-62
2023/01/05 04:05:17;;;;;;;8.30;5.10;;;;;;;2.30;100.00;98929.04;1690714;83;21402;-62
2023/01/05 04:07:45;;;;;;;6.03;5.05;;;;;;;2.29;100.00;98919.53;1647112;86;21415;-62
2023/01/05 04:10:13;;;;;;;5.75;5.15;;;;;;;2.33;100.00;98918.13;1647163;86;21622;-62
2023/01/05 04:12:42;;;;;;;5.42;4.92;;;;;;;2.36;100.00;98915.09;1647104;86;21045;-62
2023/01/05 04:15:11;;;;;;;8.00;5.33;;;;;;;2.38;100.00;98907.67;1647033;86;21537;-61
2023/01/05 04:17:40;;;;;;;6.15;5.35;;;;;;;2.34;100.00;98891.31;1645136;85;21077;-62
2023/01/05 04:20:09;;;;;;;5.55;5.05;;;;;;;2.41;100.00;98898.95;1599812;88;21939;-61
2023/01/05 04:22:36;;;;;;;5.70;5.20;;;;;;;2.45;100.00;98891.09;1659639;86;21623;-61
2023/01/05 04:25:05;;;;;;;5.15;4.70;;;;;;;2.42;100.00;98881.22;1659991;84;21441;-63
2023/01/05 04:27:32;;;;;;;6.60;4.90;;;;;;;2.45;100.00;98879.84;1659704;85;21493;-61
2023/01/05 04:29:59;;;;;;;6.45;4.45;;;;;;;2.47;100.00;98859.47;1659745;84;21528;-63
2023/01/05 04:32:26;;;;;;;6.28;5.00;;;;;;;2.49;100.00;98848.61;1659807;85;22064;-61
2023/01/05 04:34:52;;;;;;;5.12;4.30;;;;;;;2.51;100.00;98833.86;1649266;85;20976;-63
2023/01/05 04:37:20;;;;;;;5.40;4.90;;;;;;;2.49;100.00;98836.09;1659992;85;21444;-64
2023/01/05 04:39:47;;;;;;;7.60;5.83;;;;;;;2.47;100.00;98826.19;1659795;84;21489;-63
2023/01/05 04:42:14;;;;;;;5.70;4.93;;;;;;;2.51;100.00;98822.63;1660123;84;21646;-64
2023/01/05 04:44:41;;;;;;;6.65;4.92;;;;;;;2.51;100.00;98822.63;1655920;86;22121;-65
2023/01/05 04:47:08;;;;;;;6.47;5.00;;;;;;;2.50;100.00;98813.13;1655578;86;21545;-62
2023/01/05 04:49:37;;;;;;;5.97;5.12;;;;;;;2.48;100.00;98800.63;1655289;86;21518;-64
2023/01/05 04:52:05;;;;;;;5.60;4.92;;;;;;;2.45;100.00;98803.29;1655589;86;21479;-63
2023/01/05 04:54:34;;;;;;;5.80;5.15;;;;;;;2.52;100.00;98798.37;1655486;85;20973;-64
2023/01/05 04:57:03;;;;;;;7.03;5.12;;;;;;;2.51;100.00;98794.09;1655862;86;21908;-64
2023/01/05 04:59:29;;;;;;;5.45;4.72;;;;;;;2.51;100.00;98781.11;1655843;85;21502;-63
2023/01/05 05:01:59;;;;;;;6.20;5.40;;;;;;;2.53;100.00;98776.28;1656296;84;21533;-65
2023/01/05 05:04:28;;;;;;;6.45;5.67;;;;;;;2.53;100.00;98767.20;1620002;86;21077;-66
2023/01/05 05:06:55;;;;;;;7.42;5.97;;;;;;;2.53;100.00;98775.44;1602867;87;20962;-67
2023/01/05 05:09:25;;;;;;;6.62;5.42;;;;;;;2.50;100.00;98775.05;1645558;86;21445;-66
2023/01/05 05:11:53;;;;;;;5.72;5.28;;;;;;;2.51;100.00;98762.49;1602728;88;21588;-66
2023/01/05 05:14:21;;;;;;;9.30;5.40;;;;;;;2.52;100.00;98762.91;1614161;86;21486;-65
2023/01/05 05:16:48;;;;;;;6.17;4.87;;;;;;;2.55;100.00;98763.73;1611585;87;21572;-61
2023/01/05 05:19:16;;;;;;;5.80;5.12;;;;;;;2.52;100.00;98754.25;1626940;86;21577;-62
2023/01/05 05:21:43;;;;;;;6.50;5.90;;;;;;;2.53;100.00;98757.27;1640927;86;21522;-60
2023/01/05 05:24:10;;;;;;;6.50;5.28;;;;;;;2.51;100.00;98757.30;1615906;88;21514;-62
2023/01/05 05:26:39;;;;;;;6.92;5.75;;;;;;;2.45;100.00;98749.67;1620822;86;21595;-61
2023/01/05 05:29:05;;;;;;;6.45;5.50;;;;;;;2.49;100.00;98743.97;1620696;88;21455;-61
2023/01/05 05:31:32;;;;;;;5.72;5.00;;;;;;;2.48;100.00;98735.31;1620009;86;21500;-61
2023/01/05 05:33:59;;;;;;;6.67;5.25;;;;;;;2.56;100.00;98733.82;1619613;88;21960;-62
2023/01/05 05:36:25;;;;;;;5.92;5.40;;;;;;;2.58;100.00;98726.00;1619384;86;21907;-62
2023/01/05 05:38:52;;;;;;;8.25;6.60;;;;;;;2.60;100.00;98725.09;1620836;86;21471;-61
2023/01/05 05:41:19;;;;;;;5.92;5.33;;;;;;;2.50;100.00;98729.63;1620672;88;21645;-61
2023/01/05 05:46:27;;;;;;;8.05;5.62;;;;;;;2.64;100.00;98695.57;1857457;76;22875;-63
2023/01/05 05:48:55;;;;;;;5.87;5.03;;;;;;;2.66;100.00;98705.92;1810111;78;21450;-60
2023/01/05 05:51:22;;;;;;;5.37;4.70;;;;;;;2.71;100.00;98706.63;1809843;78;21818;-62
2023/01/05 05:53:49;;;;;;;6.33;5.45;;;;;;;2.72;100.00;98702.70;1811975;77;21534;-62
2023/01/05 05:56:15;;;;;;;5.33;4.83;;;;;;;2.75;100.00;98687.94;1843835;77;21497;-63
2023/01/05 05:58:43;;;;;;;5.37;4.72;;;;;;;2.79;100.00;98668.78;1847531;77;21614;-63
2023/01/05 06:01:11;;;;;;;5.03;4.62;;;;;;;2.83;100.00;98660.05;1847628;76;21503;-61
2023/01/05 06:03:37;;;;;;;6.25;5.65;;;;;;;2.89;100.00;98665.91;1847548;77;21769;-61
2023/01/05 06:06:05;;;;;;;5.90;5.30;;;;;;;2.89;100.00;98665.06;1837400;76;21403;-64
2023/01/05 06:08:31;;;;;;;5.95;5.45;;;;;;;2.94;100.00;98663.20;1847437;77;21548;-61
2023/01/05 06:10:58;;;;;;;7.60;5.58;;;;;;;2.96;100.00;98665.73;1847400;77;21489;-63
2023/01/05 06:13:24;;;;;;;6.92;6.20;;;;;;;2.97;100.00;98662.25;1849801;77;21417;-63
2023/01/05 06:15:51;;;;;;;6.53;5.33;;;;;;;2.98;100.00;98654.42;1825048;77;21823;-62
2023/01/05 06:18:18;;;;;;;5.65;5.15;;;;;;;3.00;100.00;98651.80;1842198;77;21646;-62
2023/01/05 06:20:45;;;;;;;6.05;5.37;;;;;;;3.03;100.00;98639.58;1848830;76;21540;-62
2023/01/05 06:23:11;;;;;;;5.92;5.42;;;;;;;3.05;100.00;98629.99;1844155;77;21541;-62
2023/01/05 06:25:38;;;;;;;7.17;5.45;;;;;;;3.11;100.00;98638.05;1824196;77;21455;-60
2023/01/05 06:28:05;;;;;;;6.78;6.08;;;;;;;3.12;100.00;98647.08;1848901;77;21832;-61
2023/01/05 06:30:32;;;;;;;7.58;6.45;;;;;;;3.11;100.00;98629.81;1812826;77;21437;-61
2023/01/05 06:32:59;;;;;;;5.97;5.37;;;;;;;3.14;100.00;98628.86;1818130;77;21453;-63
2023/01/05 06:35:25;;;;;;;6.00;5.55;;;;;;;3.15;100.00;98629.73;1842525;77;21429;-62
2023/01/05 06:37:52;;;;;;;6.95;6.22;;;;;;;3.17;100.00;98611.89;1842799;77;21504;-62
2023/01/05 06:40:18;;;;;;;8.80;6.65;;;;;;;3.21;100.00;98613.50;1849900;77;21837;-61
2023/01/05 06:42:46;;;;;;;7.50;6.28;;;;;;;3.23;100.00;98608.27;1849771;77;21529;-62
2023/01/05 06:45:14;;;;;;;8.75;6.05;;;;;;;3.29;100.00;98612.82;1849257;77;21017;-65
2023/01/05 06:47:42;;;;;;;;;;;;;;;3.31;100.00;98598.06;1848380;77;21513;-61
2023/01/05 06:50:09;;;;;;;8.25;6.10;;;;;;;3.35;100.00;98607.05;1845828;77;20135;-62
2023/01/05 06:52:38;;;;;;;7.58;6.75;;;;;;;3.28;100.00;98612.89;1847225;77;21797;-62
2023/01/05 06:55:09;;;;;;;8.73;6.42;;;;;;;3.31;100.00;98655.65;1848973;76;21438;-61
2023/01/05 06:57:37;;;;;;;7.00;6.30;;;;;;;3.40;100.00;98625.50;1833594;77;21410;-60
2023/01/05 07:00:10;;;;;;;7.28;5.92;;;;;;;3.45;100.00;98613.69;1834865;77;21441;-61
2023/01/05 07:02:37;;;;;;;7.70;6.87;;;;;;;3.49;100.00;98597.09;1846468;77;21403;-60
2023/01/05 07:05:06;;;;;;;6.35;5.70;;;;;;;3.50;100.00;98600.95;1849181;77;21863;-60
2023/01/05 07:07:33;;;;;;;7.65;6.35;;;;;;;3.59;100.00;98582.06;1816778;77;21377;-61
2023/01/05 07:10:00;;;;;;;7.10;6.40;;;;;;;3.54;100.00;98574.84;1844397;77;21438;-60
2023/01/05 07:12:27;;;;;;;7.17;6.47;;;;;;;3.59;100.00;98562.56;1845268;77;21541;-60
2023/01/05 07:14:53;;;;;;;7.08;6.35;;;;;;;3.66;100.00;98549.78;1809115;77;21615;-60
2023/01/05 07:17:20;;;;;;;6.55;5.65;;;;;;;3.70;100.00;98551.38;1809205;78;21536;-61
2023/01/05 07:19:47;;;;;;;6.92;6.30;;;;;;;3.74;100.00;98552.97;1838675;77;20973;-61
2023/01/05 07:22:14;;;;;;;6.90;5.80;;;;;;;3.73;100.00;98550.41;1848686;77;21458;-61
2023/01/05 07:24:41;;;;;;;6.58;5.97;;;;;;;3.79;100.00;98543.28;1824266;77;21470;-60
2023/01/05 07:27:08;;;;;;;7.83;6.20;;;;;;;3.77;100.00;98531.20;1818802;77;21411;-60
2023/01/05 07:29:34;;;;;;;6.17;5.55;;;;;;;3.83;100.00;98537.07;1847810;77;21829;-62
2023/01/05 07:32:03;;;;;;;6.45;5.83;;;;;;;3.88;100.00;98527.80;1849446;77;21413;-61
2023/01/05 07:34:30;;;;;;;6.28;5.67;;;;;;;3.89;100.00;98527.76;1849352;77;21422;-59
2023/01/05 07:36:56;;;;;;;6.58;5.97;;;;;;;3.96;100.00;98527.57;1849224;77;21572;-59
2023/01/05 07:39:24;;;;;;;6.87;5.42;;;;;;;4.00;100.00;98515.70;1848256;77;21557;-61
2023/01/05 07:41:51;;;;;;;6.70;5.85;;;;;;;4.02;100.00;98515.66;1847677;77;21746;-60
2023/01/05 07:44:17;;;;;;;7.10;5.20;;;;;;;4.00;100.00;98505.30;1848839;77;21547;-60
2023/01/05 07:46:44;;;;;;;6.72;6.12;;;;;;;4.07;100.00;98496.84;1839367;77;21541;-61
2023/01/05 07:49:10;;;;;;;7.22;6.53;;;;;;;4.06;100.00;98494.67;1849236;77;21461;-60
2023/01/05 07:51:37;;;;;;;7.90;6.70;;;;;;;4.14;100.00;98491.80;1842953;77;21485;-60
2023/01/05 07:54:04;;;;;;;7.47;6.50;;;;;;;4.21;100.00;98487.24;1848526;76;22158;-60
2023/01/05 07:56:30;;;;;;;7.08;6.37;;;;;;;4.25;100.00;98494.88;1846160;77;21579;-61
2023/01/05 07:58:58;;;;;;;7.30;6.45;;;;;;;4.32;100.00;98482.97;1828949;77;21635;-60
2023/01/05 08:01:25;;;;;;;6.92;5.92;;;;;;;4.34;100.00;98480.70;1846320;77;21505;-59
2023/01/05 08:03:51;;;;;;;7.30;6.65;;;;;;;4.36;100.00;98471.08;1836161;76;21504;-62
2023/01/05 10:15:43;;;;;;;5.87;5.37;;;;;;;4.40;100.00;98230.62;1771463;78;23269;-62
2023/01/05 10:18:23;;;;;;;5.53;4.83;;;;;;;4.85;100.00;98263.49;1746903;81;21080;-63
2023/01/05 10:21:26;;;;;;;5.37;4.87;;;;;;;5.01;100.00;98258.94;1741614;80;21815;-63
2023/01/05 10:24:32;;;;;;;5.85;5.12;;;;;;;5.12;100.00;98246.30;1736085;81;21507;-63
2023/01/05 10:27:06;;;;;;;5.15;4.65;;;;;;;5.14;100.00;98242.33;1743264;80;21460;-63
2023/01/05 10:29:46;;;;;;;4.30;4.00;;;;;;;5.19;100.00;98232.10;1745906;80;21569;-63
2023/01/05 10:32:39;;;;;;;5.20;4.65;;;;;;;5.31;100.00;98221.59;1745588;81;21518;-61
2023/01/05 10:35:21;;;;;;;5.05;4.60;;;;;;;5.38;100.00;98224.32;1748532;80;21809;-62
2023/01/05 10:38:18;;;;;;;5.80;5.10;;;;;;;5.48;100.00;98223.91;1743411;81;21482;-63
2023/01/05 10:41:15;;;;;;;4.83;4.35;;;;;;;5.44;100.00;98220.59;1738818;81;21557;-61
2023/01/05 10:43:53;;;;;;;4.87;4.35;;;;;;;5.48;100.00;98212.19;1743342;81;21544;-63
2023/01/05 10:46:20;;;;;;;5.33;4.47;;;;;;;5.53;100.00;98211.53;1696227;81;21588;-62
2023/01/05 10:48:47;;;;;;;4.85;4.37;;;;;;;5.58;100.00;98210.87;1741761;81;21862;-62
2023/01/05 10:51:14;;;;;;;5.78;4.83;;;;;;;5.62;100.00;98201.98;1737084;81;20974;-61
2023/01/05 10:53:42;;;;;;;4.28;3.83;;;;;;;5.63;100.00;98199.31;1739083;80;21136;-59
2023/01/05 10:56:15;;;;;;;4.60;4.20;;;;;;;5.73;100.00;98200.20;1731865;81;21517;-62
2023/01/05 10:58:43;;;;;;;5.00;4.47;;;;;;;5.77;100.00;98190.84;1712371;81;21525;-61
2023/01/05 11:01:24;;;;;;;;;;;;;;;5.79;100.00;98190.78;1734446;81;21537;-62
2023/01/05 11:04:16;;;;;;;5.42;4.67;;;;;;;5.77;100.00;98186.94;1739458;80;20481;-60
2023/01/05 11:06:45;;;;;;;4.90;4.12;;;;;;;5.78;100.00;98184.73;1676692;83;21446;-60
2023/01/05 11:09:19;;;;;;;5.60;3.90;;;;;;;5.87;100.00;98191.73;1703027;81;21565;-61
2023/01/05 11:11:59;;;;;;;4.53;4.12;;;;;;;5.89;100.00;98192.50;1706230;81;21519;-61
2023/01/05 11:14:32;;;;;;;4.47;4.08;;;;;;;5.90;100.00;98190.28;1701878;81;21862;-60
2023/01/05 11:17:05;;;;;;;4.33;3.55;;;;;;;5.93;100.00;98179.22;1700220;82;21644;-61
2023/01/05 11:19:43;;;;;;;3.98;3.67;;;;;;;6.00;100.00;98184.58;1731763;80;21552;-60
2023/01/05 11:25:31;;;;;;;4.47;3.30;;;;;;;6.04;100.00;98173.53;1687435;83;21555;-60
2023/01/05 11:28:15;;;;;;;5.53;4.00;;;;;;;6.14;100.00;98162.19;1660336;84;21768;-58
2023/01/05 11:30:59;;;;;;;5.12;3.50;;;;;;;6.17;100.00;98173.33;1687809;84;21120;-61
2023/01/05 11:33:28;;;;;;;3.87;3.47;;;;;;;6.26;100.00;98164.22;1687458;83;21423;-61
2023/01/05 11:35:56;;;;;;;4.00;3.25;;;;;;;6.29;100.00;98167.13;1690148;84;21051;-62
2023/01/05 11:38:26;;;;;;;3.10;2.80;;;;;;;6.35;100.00;98161.16;1690735;83;21488;-61
2023/01/05 11:40:55;;;;;;;2.70;2.50;;;;;;;6.43;100.00;98151.17;1687398;83;21919;-62
2023/01/05 11:43:27;;;;;;;3.00;2.70;;;;;;;6.52;100.00;98151.19;1686847;84;21545;-61
2023/01/05 11:45:58;;;;;;;3.22;2.92;;;;;;;6.54;100.00;98149.81;1690322;83;21582;-60
2023/01/05 11:48:31;;;;;;;3.45;2.92;;;;;;;6.49;100.00;98156.55;1686345;83;21526;-59
2023/01/05 11:51:01;;;;;;;3.83;3.12;;;;;;;6.55;100.00;98151.02;1635828;84;22452;-60
2023/01/05 11:53:37;;;;;;;3.20;2.90;;;;;;;6.60;100.00;98153.41;1690286;84;21991;-60
2023/01/05 11:56:09;;;;;;;3.20;2.90;;;;;;;6.64;100.00;98151.02;1686392;83;21596;-60
2023/01/05 11:58:44;;;;;;;3.10;2.80;;;;;;;6.64;100.00;98144.49;1691123;82;21579;-61
2023/01/05 12:01:50;;;;;;;2.65;2.40;;;;;;;6.71;100.00;98143.73;1680217;84;21578;-64
2023/01/05 12:04:46;;;;;;;3.05;2.75;;;;;;;6.70;100.00;98138.95;1689215;83;21504;-60
2023/01/05 12:07:34;;;;;;;2.72;2.52;;;;;;;6.66;100.00;98144.42;1598672;87;21828;-61
2023/01/05 12:10:13;;;;;;;2.87;2.67;;;;;;;6.65;100.00;98138.36;1636962;85;21565;-60
2023/01/05 12:13:07;;;;;;;3.58;2.52;;;;;;;6.72;100.00;98134.95;1685216;84;21526;-61
2023/01/05 12:15:43;;;;;;;2.80;2.30;;;;;;;6.73;100.00;98141.41;1687555;84;21568;-60
2023/01/05 12:18:22;;;;;;;2.77;2.52;;;;;;;6.71;100.00;98135.90;1625538;85;21537;-60
2023/01/05 12:21:20;;;;;;;2.98;2.67;;;;;;;6.77;100.00;98130.35;1659273;84;21522;-61
2023/01/05 12:24:25;;;;;;;2.30;2.08;;;;;;;6.75;100.00;98131.73;1640922;86;21664;-60
2023/01/05 12:27:03;;;;;;;2.77;2.58;;;;;;;6.77;100.00;98124.66;1630051;86;21588;-60
2023/01/05 12:29:51;;;;;;;4.78;2.50;;;;;;;6.81;100.00;98122.27;1659181;84;21734;-60
2023/01/05 12:33:00;;;;;;;2.92;2.62;;;;;;;6.79;100.00;98120.66;1659135;84;21555;-61
2023/01/05 12:35:32;;;;;;;2.33;2.02;;;;;;;6.80;100.00;98124.98;1655948;84;21896;-62
2023/01/05 14:51:55;;;;;;;1.75;1.55;;;;;;;5.65;100.00;98099.70;1773571;78;23159;-61
2023/01/05 14:54:44;;;;;;;1.92;1.50;;;;;;;6.55;100.00;98171.06;1750116;78;21672;-64
2023/01/05 14:57:36;;;;;;;1.77;1.67;;;;;;;6.75;100.00;98172.22;1745726;80;22003;-64
2023/01/05 15:00:12;;;;;;;1.57;1.47;;;;;;;6.91;100.00;98158.37;1744782;80;21399;-66
2023/01/05 15:02:55;;;;;;;2.80;2.47;;;;;;;7.00;100.00;98150.05;1679958;81;21049;-64
2023/01/05 15:05:21;;;;;;;2.62;2.42;;;;;;;7.06;100.00;98133.21;1707555;82;21598;-63
2023/01/05 15:08:21;;;;;;;2.58;2.40;;;;;;;7.12;100.00;98127.21;1704347;83;21527;-64
2023/01/05 15:11:08;;;;;;;2.85;2.17;;;;;;;7.23;100.00;98120.55;1649579;83;22083;-64
2023/01/05 15:20:36;;;;;;;3.02;2.37;;;;;;;7.46;100.00;98120.17;1693014;82;20145;-64
2023/01/05 15:23:30;;;;;;;2.40;2.20;;;;;;;7.53;100.00;98122.81;1680657;83;21605;-63
2023/01/05 15:26:35;;;;;;;2.85;2.55;;;;;;;7.54;100.00;98121.90;1730101;80;21819;-65
2023/01/05 15:29:29;;;;;;;3.08;2.50;;;;;;;7.55;100.00;98120.98;1647007;85;21485;-63
2023/01/05 15:32:37;;;;;;;2.45;2.25;;;;;;;7.62;100.00;98124.09;1741601;81;21533;-64
2023/01/05 15:35:16;;;;;;;2.35;2.15;;;;;;;7.66;100.00;98122.99;1743161;81;21618;-64
2023/01/05 15:37:46;;;;;;;1.90;1.80;;;;;;;7.69;100.00;98120.22;1744558;80;21425;-63
2023/01/05 15:40:24;;;;;;;2.40;2.20;;;;;;;7.74;100.00;98122.56;1742107;81;21785;-63
2023/01/05 15:43:01;;;;;;;2.30;2.10;;;;;;;7.80;100.00;98128.79;1743536;80;21505;-63
2023/01/05 15:45:34;;;;;;;3.52;2.00;;;;;;;7.75;100.00;98119.03;1744680;80;21441;-64
2023/01/05 15:48:13;;;;;;;2.10;2.00;;;;;;;7.77;100.00;98119.79;1738552;81;21453;-65
2023/01/05 15:50:49;;;;;;;2.00;1.90;;;;;;;7.76;100.00;98124.63;1739371;80;21811;-66
2023/01/05 15:53:29;;;;;;;1.90;1.80;;;;;;;7.78;100.00;98126.25;1713716;81;21966;-62
2023/01/05 15:55:56;;;;;;;2.22;2.00;;;;;;;7.76;100.00;98125.50;1743782;80;21055;-64
2023/01/05 15:58:24;;;;;;;2.12;1.90;;;;;;;7.72;100.00;98129.22;1706900;82;21873;-63
2023/01/05 16:01:09;;;;;;;2.15;1.70;;;;;;;7.79;100.00;98130.54;1743535;81;21584;-64
2023/01/05 16:03:37;;;;;;;1.90;1.80;;;;;;;7.76;100.00;98129.42;1738968;80;21108;-64
2023/01/05 16:06:22;;;;;;;2.17;1.98;;;;;;;7.67;100.00;98129.92;1739725;81;21513;-63
2023/01/05 16:08:51;;;;;;;3.35;2.42;;;;;;;7.66;100.00;98133.92;1694074;83;21066;-65
2023/01/05 16:11:32;;;;;;;2.05;1.85;;;;;;;7.71;100.00;98133.22;1695437;83;21597;-64
2023/01/05 16:14:13;;;;;;;1.45;1.35;;;;;;;7.67;100.00;98134.32;1699338;83;21490;-63
2023/01/05 16:16:46;;;;;;;2.00;1.80;;;;;;;7.67;100.00;98134.32;1682144;83;21569;-64
2023/01/05 16:19:43;;;;;;;1.85;1.62;;;;;;;7.64;100.00;98131.39;1681836;84;21969;-62
2023/01/05 17:49:59;;;;;;;1.90;1.80;;;;;;;6.33;100.00;98177.36;1723630;82;21518;-62
2023/01/05 17:52:26;;;;;;;3.50;2.15;;;;;;;6.56;100.00;98173.61;1725563;82;21968;-65
2023/01/05 17:54:52;;;;;;;1.65;1.55;;;;;;;6.72;100.00;98165.83;1725927;81;21557;-65
2023/01/05 17:57:19;;;;;;;1.80;1.70;;;;;;;6.75;100.00;98155.71;1726597;81;21491;-65
2023/01/05 17:59:46;;;;;;;1.47;1.37;;;;;;;6.81;100.00;98148.86;1723764;81;21522;-66
2023/01/05 18:02:13;;;;;;;1.77;1.65;;;;;;;6.94;100.00;98141.23;1755349;80;20972;-64
2023/01/05 18:04:40;;;;;;;2.67;1.90;;;;;;;7.05;100.00;98140.22;1759486;79;22186;-65
2023/01/05 18:07:06;;;;;;;1.67;1.57;;;;;;;7.12;100.00;98140.72;1753662;80;21512;-66
2023/01/05 18:09:34;;;;;;;2.65;1.67;;;;;;;7.21;100.00;98132.40;1755393;79;21614;-66
2023/01/05 18:12:00;;;;;;;1.40;1.30;;;;;;;7.20;100.00;98137.26;1725065;81;21535;-64
2023/01/05 18:14:28;;;;;;;1.80;1.70;;;;;;;7.27;100.00;98140.38;1694276;83;21562;-66
2023/01/05 18:16:55;;;;;;;2.30;2.10;;;;;;;7.36;100.00;98143.81;1690637;83;22155;-66
2023/01/05 18:19:21;;;;;;;1.67;1.57;;;;;;;7.48;100.00;98151.02;1693369;83;21523;-66
2023/01/05 18:21:48;;;;;;;1.60;1.50;;;;;;;7.49;100.00;98144.00;1699866;83;21693;-66
2023/01/05 18:24:16;;;;;;;1.60;1.50;;;;;;;7.55;100.00;98147.14;1757727;80;21489;-66
2023/01/05 18:26:42;;;;;;;1.47;1.37;;;;;;;7.52;100.00;98148.61;1756852;79;21564;-66
2023/01/05 18:29:09;;;;;;;1.92;1.70;;;;;;;7.52;100.00;98152.53;1725259;81;22279;-64
2023/01/05 18:31:37;;;;;;;2.00;1.80;;;;;;;7.55;100.00;98154.13;1693458;83;21520;-64
2023/01/05 18:34:04;;;;;;;2.30;2.10;;;;;;;7.52;100.00;98161.69;1758307;79;21531;-64